createdAt,value
2017-03-16T00:00:06.350Z,1026.78
2017-03-16T00:01:15.608Z,1026.8
2017-03-16T00:02:24.854Z,1026.78
2017-03-16T00:03:33.685Z,1026.82
2017-03-16T00:04:42.333Z,1026.74
2017-03-16T00:05:50.991Z,1026.75
2017-03-16T00:07:00.304Z,1026.73
2017-03-16T00:08:08.956Z,1026.72
2017-03-16T00:09:17.858Z,1026.72
2017-03-16T00:10:26.803Z,1026.67
2017-03-16T00:11:36.056Z,1026.67
2017-03-16T00:12:44.712Z,1026.63
2017-03-16T00:13:53.447Z,1026.58
2017-03-16T00:15:02.103Z,1026.61
2017-03-16T00:16:11.069Z,1026.61
2017-03-16T00:17:19.806Z,1026.58
2017-03-16T00:18:29.059Z,1026.61
2017-03-16T00:19:37.737Z,1026.64
2017-03-16T00:20:46.637Z,1026.64
2017-03-16T00:21:55.981Z,1026.63
2017-03-16T00:23:04.935Z,1026.6
2017-03-16T00:24:13.887Z,1026.58
2017-03-16T00:25:22.535Z,1026.6
2017-03-16T00:26:31.189Z,1026.57
2017-03-16T00:27:40.141Z,1026.64
2017-03-16T00:28:48.796Z,1026.6
2017-03-16T00:29:57.448Z,1026.65
2017-03-16T00:31:06.188Z,1026.6
2017-03-16T00:32:14.842Z,1026.62
2017-03-16T00:33:23.500Z,1026.58
2017-03-16T00:34:32.192Z,1026.56
2017-03-16T00:35:41.142Z,1026.57
2017-03-16T00:36:50.101Z,1026.56
2017-03-16T00:37:59.601Z,1026.53
2017-03-16T00:39:08.289Z,1026.5
2017-03-16T00:40:16.937Z,1026.47
2017-03-16T00:41:25.593Z,1026.48
2017-03-16T00:42:34.242Z,1026.43
2017-03-16T00:43:42.966Z,1026.41
2017-03-16T00:44:51.613Z,1026.45
2017-03-16T00:46:00.561Z,1026.45
2017-03-16T00:47:09.519Z,1026.44
2017-03-16T00:48:18.178Z,1026.44
2017-03-16T00:49:27.127Z,1026.44
2017-03-16T00:50:35.777Z,1026.45
2017-03-16T00:51:44.508Z,1026.42
2017-03-16T00:52:53.313Z,1026.43
2017-03-16T00:54:01.969Z,1026.43
2017-03-16T00:55:11.476Z,1026.39
2017-03-16T00:56:20.426Z,1026.38
2017-03-16T00:57:29.117Z,1026.33
2017-03-16T00:58:37.767Z,1026.33
2017-03-16T00:59:46.720Z,1026.32
2017-03-16T01:00:55.375Z,1026.31
2017-03-16T01:02:04.030Z,1026.22
2017-03-16T01:03:13.089Z,1026.28
2017-03-16T01:04:21.848Z,1026.32
2017-03-16T01:05:30.494Z,1026.27
2017-03-16T01:06:39.471Z,1026.25
2017-03-16T01:07:49.015Z,1026.22
2017-03-16T01:08:57.968Z,1026.2
2017-03-16T01:10:06.617Z,1026.22
2017-03-16T01:11:15.360Z,1026.13
2017-03-16T01:12:24.018Z,1026.14
2017-03-16T01:13:33.292Z,1026.13
2017-03-16T01:14:41.941Z,1026.14
2017-03-16T01:15:51.331Z,1026.08
2017-03-16T01:17:00.285Z,1026.09
2017-03-16T01:18:09.698Z,1026.12
2017-03-16T01:19:18.670Z,1026.09
2017-03-16T01:20:27.626Z,1026.08
2017-03-16T01:21:36.275Z,1026.09
2017-03-16T01:22:44.926Z,1026.05
2017-03-16T01:23:55.093Z,1026.06
2017-03-16T01:25:03.798Z,1026.06
2017-03-16T01:26:13.057Z,1026
2017-03-16T01:27:21.734Z,1025.96
2017-03-16T01:28:30.806Z,1025.97
2017-03-16T01:29:39.645Z,1025.94
2017-03-16T01:30:48.687Z,1025.94
2017-03-16T01:31:58.042Z,1025.94
2017-03-16T01:33:06.696Z,1025.92
2017-03-16T01:34:15.855Z,1025.9
2017-03-16T01:35:25.062Z,1025.89
2017-03-16T01:36:34.029Z,1025.85
2017-03-16T01:37:42.676Z,1025.86
2017-03-16T01:38:51.927Z,1025.8
2017-03-16T01:40:01.211Z,1025.83
2017-03-16T01:41:10.167Z,1025.8
2017-03-16T01:42:18.819Z,1025.81
2017-03-16T01:43:27.547Z,1025.82
2017-03-16T01:44:36.233Z,1025.82
2017-03-16T01:45:44.904Z,1025.75
2017-03-16T01:46:54.117Z,1025.74
2017-03-16T01:48:03.078Z,1025.7
2017-03-16T01:49:11.750Z,1025.69
2017-03-16T01:50:21.044Z,1025.67
2017-03-16T01:51:30.469Z,1025.69
2017-03-16T01:52:39.413Z,1025.66
2017-03-16T01:53:48.986Z,1025.61
2017-03-16T01:54:57.942Z,1025.62
2017-03-16T01:56:06.598Z,1025.65
2017-03-16T01:57:15.590Z,1025.6
2017-03-16T01:58:24.542Z,1025.62
2017-03-16T01:59:33.199Z,1025.59
2017-03-16T02:00:42.763Z,1025.58
2017-03-16T02:01:51.717Z,1025.57
2017-03-16T02:03:00.366Z,1025.56
2017-03-16T02:04:09.563Z,1025.52
2017-03-16T02:05:18.222Z,1025.5
2017-03-16T02:06:27.009Z,1025.47
2017-03-16T02:07:35.682Z,1025.49
2017-03-16T02:08:44.966Z,1025.44
2017-03-16T02:09:54.010Z,1025.44
2017-03-16T02:11:03.558Z,1025.39
2017-03-16T02:12:12.209Z,1025.41
2017-03-16T02:13:21.461Z,1025.45
2017-03-16T02:14:30.131Z,1025.43
2017-03-16T02:15:38.781Z,1025.45
2017-03-16T02:16:47.435Z,1025.38
2017-03-16T02:17:56.110Z,1025.36
2017-03-16T02:19:05.060Z,1025.32
2017-03-16T02:20:14.324Z,1025.31
2017-03-16T02:21:24.127Z,1025.29
2017-03-16T02:22:32.779Z,1025.24
2017-03-16T02:23:41.431Z,1025.22
2017-03-16T02:24:50.383Z,1025.23
2017-03-16T02:25:59.038Z,1025.26
2017-03-16T02:27:07.698Z,1025.25
2017-03-16T02:28:16.709Z,1025.25
2017-03-16T02:29:25.365Z,1025.26
2017-03-16T02:30:34.333Z,1025.27
2017-03-16T02:31:43.579Z,1025.24
2017-03-16T02:32:52.541Z,1025.26
2017-03-16T02:34:01.491Z,1025.25
2017-03-16T02:35:10.210Z,1025.27
2017-03-16T02:36:19.164Z,1025.27
2017-03-16T02:37:27.854Z,1025.33
2017-03-16T02:38:37.174Z,1025.31
2017-03-16T02:39:46.182Z,1025.31
2017-03-16T02:40:55.133Z,1025.3
2017-03-16T02:42:04.084Z,1025.33
2017-03-16T02:43:13.032Z,1025.3
2017-03-16T02:44:22.588Z,1025.29
2017-03-16T02:45:32.148Z,1025.24
2017-03-16T02:46:41.396Z,1025.23
2017-03-16T02:47:50.729Z,1025.27
2017-03-16T02:49:00.070Z,1025.25
2017-03-16T02:50:08.974Z,1025.29
2017-03-16T02:51:17.635Z,1025.24
2017-03-16T02:52:26.583Z,1025.26
2017-03-16T02:53:35.535Z,1025.26
2017-03-16T02:54:44.192Z,1025.19
2017-03-16T02:55:53.333Z,1025.25
2017-03-16T02:57:02.302Z,1025.18
2017-03-16T02:58:10.957Z,1025.19
2017-03-16T02:59:20.639Z,1025.2
2017-03-16T03:00:29.592Z,1025.19
2017-03-16T03:01:38.407Z,1025.2
2017-03-16T03:02:47.725Z,1025.15
2017-03-16T03:03:56.721Z,1025.19
2017-03-16T03:05:06.547Z,1025.16
2017-03-16T03:06:15.200Z,1025.17
2017-03-16T03:07:24.418Z,1025.09
2017-03-16T03:08:33.668Z,1025.12
2017-03-16T03:09:42.643Z,1025.07
2017-03-16T03:10:51.588Z,1025.04
2017-03-16T03:12:00.629Z,1025.09
2017-03-16T03:13:09.288Z,1025.08
2017-03-16T03:14:18.266Z,1025
2017-03-16T03:15:27.534Z,1025.01
2017-03-16T03:16:36.532Z,1024.96
2017-03-16T03:17:45.788Z,1024.99
2017-03-16T03:18:54.727Z,1024.94
2017-03-16T03:20:03.684Z,1024.96
2017-03-16T03:21:12.686Z,1024.97
2017-03-16T03:22:21.346Z,1024.99
2017-03-16T03:23:30.006Z,1025
2017-03-16T03:24:38.964Z,1024.97
2017-03-16T03:25:47.916Z,1025
2017-03-16T03:26:56.868Z,1024.92
2017-03-16T03:28:05.544Z,1024.97
2017-03-16T03:29:14.584Z,1024.99
2017-03-16T03:30:23.868Z,1025.07
2017-03-16T03:31:32.516Z,1025.06
2017-03-16T03:32:41.767Z,1025.03
2017-03-16T03:33:50.719Z,1025
2017-03-16T03:34:59.969Z,1025
2017-03-16T03:36:08.943Z,1024.95
2017-03-16T03:37:18.497Z,1024.98
2017-03-16T03:38:27.453Z,1024.85
2017-03-16T03:39:37.010Z,1024.93
2017-03-16T03:40:45.684Z,1024.97
2017-03-16T03:41:54.935Z,1024.92
2017-03-16T03:43:03.884Z,1024.95
2017-03-16T03:44:12.889Z,1024.94
2017-03-16T03:45:21.842Z,1024.94
2017-03-16T03:46:30.536Z,1024.91
2017-03-16T03:47:39.758Z,1024.99
2017-03-16T03:48:48.412Z,1024.97
2017-03-16T03:49:57.692Z,1024.96
2017-03-16T03:51:06.995Z,1024.91
2017-03-16T03:52:15.942Z,1024.88
2017-03-16T03:53:24.900Z,1024.87
2017-03-16T03:54:33.550Z,1024.88
2017-03-16T03:55:42.503Z,1024.84
2017-03-16T03:56:51.155Z,1024.82
2017-03-16T03:58:00.408Z,1024.81
2017-03-16T03:59:09.055Z,1024.82
2017-03-16T04:00:17.707Z,1024.84
2017-03-16T04:01:26.366Z,1024.85
2017-03-16T04:02:35.319Z,1024.87
2017-03-16T04:03:43.970Z,1024.85
2017-03-16T04:04:53.478Z,1024.85
2017-03-16T04:06:03.032Z,1024.85
2017-03-16T04:07:11.982Z,1024.86
2017-03-16T04:08:21.238Z,1024.84
2017-03-16T04:09:30.487Z,1024.81
2017-03-16T04:10:39.133Z,1024.86
2017-03-16T04:11:48.385Z,1024.85
2017-03-16T04:12:57.336Z,1024.9
2017-03-16T04:14:06.587Z,1024.85
2017-03-16T04:15:15.837Z,1024.81
2017-03-16T04:16:24.751Z,1024.84
2017-03-16T04:17:33.701Z,1024.78
2017-03-16T04:18:42.647Z,1024.82
2017-03-16T04:19:52.200Z,1024.81
2017-03-16T04:21:00.847Z,1024.72
2017-03-16T04:22:09.506Z,1024.77
2017-03-16T04:23:18.159Z,1024.75
2017-03-16T04:24:26.810Z,1024.77
2017-03-16T04:25:35.758Z,1024.77
2017-03-16T04:26:45.006Z,1024.79
2017-03-16T04:27:53.955Z,1024.74
2017-03-16T04:29:03.508Z,1024.7
2017-03-16T04:30:12.457Z,1024.7
2017-03-16T04:31:21.712Z,1024.75
2017-03-16T04:32:30.669Z,1024.7
2017-03-16T04:33:39.614Z,1024.76
2017-03-16T04:34:48.264Z,1024.74
2017-03-16T04:35:57.217Z,1024.71
2017-03-16T04:37:06.169Z,1024.69
2017-03-16T04:38:15.417Z,1024.72
2017-03-16T04:39:24.067Z,1024.68
2017-03-16T04:40:33.319Z,1024.69
2017-03-16T04:41:41.968Z,1024.7
2017-03-16T04:42:50.619Z,1024.68
2017-03-16T04:43:59.580Z,1024.65
2017-03-16T04:45:08.532Z,1024.7
2017-03-16T04:46:17.208Z,1024.7
2017-03-16T04:47:26.161Z,1024.65
2017-03-16T04:48:35.425Z,1024.69
2017-03-16T04:49:44.077Z,1024.67
2017-03-16T04:50:53.599Z,1024.58
2017-03-16T04:52:02.554Z,1024.57
2017-03-16T04:53:11.208Z,1024.53
2017-03-16T04:54:20.159Z,1024.54
2017-03-16T04:55:29.419Z,1024.45
2017-03-16T04:56:38.071Z,1024.52
2017-03-16T04:57:46.728Z,1024.56
2017-03-16T04:58:55.976Z,1024.54
2017-03-16T05:00:04.926Z,1024.57
2017-03-16T05:01:13.877Z,1024.58
2017-03-16T05:02:22.829Z,1024.6
2017-03-16T05:03:31.480Z,1024.58
2017-03-16T05:04:40.431Z,1024.51
2017-03-16T05:05:49.685Z,1024.52
2017-03-16T05:06:58.336Z,1024.5
2017-03-16T05:08:07.839Z,1024.5
2017-03-16T05:09:16.793Z,1024.48
2017-03-16T05:10:26.645Z,1024.55
2017-03-16T05:11:35.598Z,1024.55
2017-03-16T05:12:44.249Z,1024.58
2017-03-16T05:13:54.114Z,1024.6
2017-03-16T05:15:03.072Z,1024.63
2017-03-16T05:16:12.022Z,1024.64
2017-03-16T05:17:20.677Z,1024.62
2017-03-16T05:18:29.641Z,1024.69
2017-03-16T05:19:39.447Z,1024.64
2017-03-16T05:20:48.401Z,1024.66
2017-03-16T05:21:57.351Z,1024.63
2017-03-16T05:23:06.007Z,1024.67
2017-03-16T05:24:15.564Z,1024.64
2017-03-16T05:25:24.819Z,1024.62
2017-03-16T05:26:33.480Z,1024.61
2017-03-16T05:27:42.140Z,1024.65
2017-03-16T05:28:51.102Z,1024.64
2017-03-16T05:30:00.354Z,1024.62
2017-03-16T05:31:09.555Z,1024.59
2017-03-16T05:32:18.205Z,1024.54
2017-03-16T05:33:27.766Z,1024.55
2017-03-16T05:34:37.630Z,1024.53
2017-03-16T05:35:46.588Z,1024.52
2017-03-16T05:36:55.240Z,1024.54
2017-03-16T05:38:04.188Z,1024.58
2017-03-16T05:39:13.445Z,1024.57
2017-03-16T05:40:23.001Z,1024.61
2017-03-16T05:41:32.547Z,1024.62
2017-03-16T05:42:41.447Z,1024.59
2017-03-16T05:43:50.737Z,1024.63
2017-03-16T05:44:59.689Z,1024.59
2017-03-16T05:46:08.641Z,1024.59
2017-03-16T05:47:17.292Z,1024.55
2017-03-16T05:48:26.552Z,1024.57
2017-03-16T05:49:36.109Z,1024.53
2017-03-16T05:50:45.066Z,1024.51
2017-03-16T05:51:53.717Z,1024.49
2017-03-16T05:53:02.667Z,1024.53
2017-03-16T05:54:12.779Z,1024.56
2017-03-16T05:55:22.039Z,1024.54
2017-03-16T05:56:30.991Z,1024.57
2017-03-16T05:57:39.665Z,1024.52
2017-03-16T05:58:48.955Z,1024.54
2017-03-16T05:59:58.221Z,1024.57
2017-03-16T06:01:07.178Z,1024.6
2017-03-16T06:02:15.837Z,1024.56
2017-03-16T06:03:24.496Z,1024.63
2017-03-16T06:04:34.052Z,1024.6
2017-03-16T06:05:43.256Z,1024.6
2017-03-16T06:06:51.905Z,1024.63
2017-03-16T06:08:00.858Z,1024.6
2017-03-16T06:09:10.409Z,1024.56
2017-03-16T06:10:19.664Z,1024.6
2017-03-16T06:11:28.915Z,1024.59
2017-03-16T06:12:37.864Z,1024.62
2017-03-16T06:13:47.722Z,1024.6
2017-03-16T06:14:57.579Z,1024.59
2017-03-16T06:16:06.830Z,1024.53
2017-03-16T06:17:16.335Z,1024.62
2017-03-16T06:18:25.290Z,1024.57
2017-03-16T06:19:34.255Z,1024.63
2017-03-16T06:20:43.510Z,1024.61
2017-03-16T06:21:52.167Z,1024.63
2017-03-16T06:23:00.816Z,1024.63
2017-03-16T06:24:10.077Z,1024.65
2017-03-16T06:25:19.935Z,1024.61
2017-03-16T06:26:29.185Z,1024.63
2017-03-16T06:27:38.139Z,1024.6
2017-03-16T06:28:47.982Z,1024.65
2017-03-16T06:29:56.948Z,1024.64
2017-03-16T06:31:05.907Z,1024.65
2017-03-16T06:32:14.560Z,1024.64
2017-03-16T06:33:23.216Z,1024.73
2017-03-16T06:34:32.167Z,1024.71
2017-03-16T06:35:41.118Z,1024.72
2017-03-16T06:36:50.078Z,1024.72
2017-03-16T06:37:59.331Z,1024.75
2017-03-16T06:39:09.188Z,1024.71
2017-03-16T06:40:18.985Z,1024.72
2017-03-16T06:41:27.638Z,1024.76
2017-03-16T06:42:36.287Z,1024.75
2017-03-16T06:43:45.846Z,1024.75
2017-03-16T06:44:55.507Z,1024.73
2017-03-16T06:46:04.496Z,1024.74
2017-03-16T06:47:13.197Z,1024.73
2017-03-16T06:48:22.452Z,1024.67
2017-03-16T06:49:32.007Z,1024.73
2017-03-16T06:50:40.689Z,1024.7
2017-03-16T06:51:49.918Z,1024.69
2017-03-16T06:52:58.577Z,1024.71
2017-03-16T06:54:07.828Z,1024.73
2017-03-16T06:55:17.087Z,1024.67
2017-03-16T06:56:25.740Z,1024.65
2017-03-16T06:57:34.996Z,1024.66
2017-03-16T06:58:44.551Z,1024.68
2017-03-16T06:59:53.509Z,1024.63
2017-03-16T07:01:02.773Z,1024.66
2017-03-16T07:02:11.729Z,1024.62
2017-03-16T07:03:20.636Z,1024.6
2017-03-16T07:04:30.489Z,1024.62
2017-03-16T07:05:39.739Z,1024.59
2017-03-16T07:06:48.389Z,1024.61
2017-03-16T07:07:57.341Z,1024.58
2017-03-16T07:09:06.300Z,1024.53
2017-03-16T07:10:16.162Z,1024.61
2017-03-16T07:11:24.814Z,1024.53
2017-03-16T07:12:33.458Z,1024.55
2017-03-16T07:13:42.716Z,1024.54
2017-03-16T07:14:51.979Z,1024.54
2017-03-16T07:16:01.543Z,1024.55
2017-03-16T07:17:10.195Z,1024.57
2017-03-16T07:18:19.149Z,1024.56
2017-03-16T07:19:28.406Z,1024.61
2017-03-16T07:20:37.667Z,1024.57
2017-03-16T07:21:46.628Z,1024.59
2017-03-16T07:22:55.608Z,1024.55
2017-03-16T07:24:05.474Z,1024.5
2017-03-16T07:25:14.733Z,1024.52
2017-03-16T07:26:23.393Z,1024.54
2017-03-16T07:27:32.651Z,1024.52
2017-03-16T07:28:41.922Z,1024.57
2017-03-16T07:29:51.186Z,1024.57
2017-03-16T07:31:00.450Z,1024.55
2017-03-16T07:32:09.949Z,1024.55
2017-03-16T07:33:18.903Z,1024.6
2017-03-16T07:34:27.862Z,1024.58
2017-03-16T07:35:37.114Z,1024.58
2017-03-16T07:36:46.068Z,1024.57
2017-03-16T07:37:55.033Z,1024.57
2017-03-16T07:39:04.293Z,1024.55
2017-03-16T07:40:13.553Z,1024.56
2017-03-16T07:41:22.503Z,1024.58
2017-03-16T07:42:31.463Z,1024.58
2017-03-16T07:43:41.275Z,1024.58
2017-03-16T07:44:50.531Z,1024.59
2017-03-16T07:45:59.787Z,1024.61
2017-03-16T07:47:08.736Z,1024.66
2017-03-16T07:48:17.393Z,1024.63
2017-03-16T07:49:26.056Z,1024.58
2017-03-16T07:50:35.311Z,1024.63
2017-03-16T07:51:44.269Z,1024.61
2017-03-16T07:52:52.932Z,1024.59
2017-03-16T07:54:02.793Z,1024.63
2017-03-16T07:55:12.006Z,1024.65
2017-03-16T07:56:20.662Z,1024.65
2017-03-16T07:57:29.614Z,1024.61
2017-03-16T07:58:38.870Z,1024.63
2017-03-16T07:59:48.136Z,1024.63
2017-03-16T08:00:57.401Z,1024.63
2017-03-16T08:02:06.057Z,1024.63
2017-03-16T08:03:15.609Z,1024.58
2017-03-16T08:04:25.166Z,1024.59
2017-03-16T08:05:34.128Z,1024.6
2017-03-16T08:06:42.790Z,1024.56
2017-03-16T08:07:52.044Z,1024.57
2017-03-16T08:09:01.610Z,1024.6
2017-03-16T08:10:10.873Z,1024.54
2017-03-16T08:11:19.828Z,1024.56
2017-03-16T08:12:28.745Z,1024.56
2017-03-16T08:13:37.406Z,1024.53
2017-03-16T08:14:46.076Z,1024.53
2017-03-16T08:15:55.652Z,1024.54
2017-03-16T08:17:04.610Z,1024.53
2017-03-16T08:18:13.866Z,1024.51
2017-03-16T08:19:23.431Z,1024.48
2017-03-16T08:20:32.394Z,1024.43
2017-03-16T08:21:41.345Z,1024.44
2017-03-16T08:22:50.005Z,1024.48
2017-03-16T08:24:00.117Z,1024.49
2017-03-16T08:25:08.772Z,1024.46
2017-03-16T08:26:17.429Z,1024.53
2017-03-16T08:27:26.091Z,1024.51
2017-03-16T08:28:34.748Z,1024.54
2017-03-16T08:29:43.405Z,1024.57
2017-03-16T08:30:52.063Z,1024.57
2017-03-16T08:32:00.717Z,1024.57
2017-03-16T08:33:09.677Z,1024.55
2017-03-16T08:34:18.333Z,1024.49
2017-03-16T08:35:27.241Z,1024.53
2017-03-16T08:36:36.200Z,1024.52
2017-03-16T08:37:44.856Z,1024.49
2017-03-16T08:38:53.514Z,1024.51
2017-03-16T08:40:02.469Z,1024.5
2017-03-16T08:41:11.430Z,1024.47
2017-03-16T08:42:20.086Z,1024.43
2017-03-16T08:43:29.043Z,1024.44
2017-03-16T08:44:37.695Z,1024.48
2017-03-16T08:45:46.649Z,1024.64
2017-03-16T08:46:55.866Z,1024.93
2017-03-16T08:48:04.821Z,1025.27
2017-03-16T08:49:13.774Z,1025.72
2017-03-16T08:50:22.734Z,1025.99
2017-03-16T08:51:31.389Z,1025.17
2017-03-16T08:52:40.650Z,1024.68
2017-03-16T08:53:49.300Z,1024.63
2017-03-16T08:54:57.954Z,1024.61
2017-03-16T08:56:06.913Z,1024.63
2017-03-16T08:57:15.588Z,1024.58
2017-03-16T08:58:24.547Z,1024.6
2017-03-16T08:59:33.207Z,1024.55
2017-03-16T09:00:42.467Z,1024.59
2017-03-16T09:01:51.133Z,1024.57
2017-03-16T09:02:59.798Z,1024.55
2017-03-16T09:04:09.308Z,1024.52
2017-03-16T09:05:17.973Z,1024.5
2017-03-16T09:06:26.637Z,1024.5
2017-03-16T09:07:35.604Z,1024.52
2017-03-16T09:08:44.861Z,1024.51
2017-03-16T09:09:54.132Z,1024.51
2017-03-16T09:11:03.097Z,1024.52
2017-03-16T09:12:11.760Z,1024.55
2017-03-16T09:13:20.724Z,1024.53
2017-03-16T09:14:29.690Z,1024.54
2017-03-16T09:15:39.505Z,1024.52
2017-03-16T09:16:48.763Z,1024.49
2017-03-16T09:17:57.434Z,1024.52
2017-03-16T09:19:07.000Z,1024.49
2017-03-16T09:20:15.669Z,1024.48
2017-03-16T09:21:24.337Z,1024.44
2017-03-16T09:22:34.206Z,1024.48
2017-03-16T09:23:43.168Z,1024.51
2017-03-16T09:24:52.134Z,1024.47
2017-03-16T09:26:00.811Z,1024.5
2017-03-16T09:27:09.675Z,1024.5
2017-03-16T09:28:18.638Z,1024.54
2017-03-16T09:29:27.302Z,1024.51
2017-03-16T09:30:35.972Z,1024.54
2017-03-16T09:31:44.940Z,1024.55
2017-03-16T09:32:54.417Z,1024.56
2017-03-16T09:34:03.695Z,1024.57
2017-03-16T09:35:12.358Z,1024.54
2017-03-16T09:36:21.360Z,1024.55
2017-03-16T09:37:30.332Z,1024.47
2017-03-16T09:38:39.000Z,1024.47
2017-03-16T09:39:47.969Z,1024.49
2017-03-16T09:40:57.235Z,1024.51
2017-03-16T09:42:06.196Z,1024.54
2017-03-16T09:43:14.867Z,1024.59
2017-03-16T09:44:23.787Z,1024.62
2017-03-16T09:45:33.051Z,1024.57
2017-03-16T09:46:42.321Z,1024.63
2017-03-16T09:47:51.292Z,1024.6
2017-03-16T09:49:00.255Z,1024.57
2017-03-16T09:50:08.926Z,1024.55
2017-03-16T09:51:17.896Z,1024.53
2017-03-16T09:52:26.569Z,1024.51
2017-03-16T09:53:35.242Z,1024.48
2017-03-16T09:54:44.511Z,1024.49
2017-03-16T09:55:53.480Z,1024.56
2017-03-16T09:57:02.750Z,1024.47
2017-03-16T09:58:12.016Z,1024.5
2017-03-16T09:59:20.679Z,1024.48
2017-03-16T10:00:29.645Z,1024.53
2017-03-16T10:01:38.323Z,1024.52
2017-03-16T10:02:46.994Z,1024.5
2017-03-16T10:03:55.660Z,1024.49
2017-03-16T10:05:04.629Z,1024.48
2017-03-16T10:06:13.893Z,1024.56
2017-03-16T10:07:23.411Z,1024.82
2017-03-16T10:08:32.087Z,1025.1
2017-03-16T10:09:40.756Z,1024.78
2017-03-16T10:10:49.428Z,1024.73
2017-03-16T10:11:58.399Z,1025.33
2017-03-16T10:13:07.074Z,1026
2017-03-16T10:14:15.745Z,1025.26
2017-03-16T10:15:24.410Z,1025.01
2017-03-16T10:16:33.383Z,1024.88
2017-03-16T10:17:42.058Z,1024.87
2017-03-16T10:18:50.731Z,1024.89
2017-03-16T10:19:59.694Z,1024.85
2017-03-16T10:21:08.393Z,1024.86
2017-03-16T10:22:17.364Z,1024.92
2017-03-16T10:23:26.028Z,1024.9
2017-03-16T10:24:35.000Z,1024.87
2017-03-16T10:25:44.269Z,1024.82
2017-03-16T10:26:53.540Z,1024.79
2017-03-16T10:28:02.217Z,1024.81
2017-03-16T10:29:10.895Z,1024.76
2017-03-16T10:30:19.819Z,1024.79
2017-03-16T10:31:29.100Z,1024.8
2017-03-16T10:32:38.067Z,1024.8
2017-03-16T10:33:47.340Z,1024.8
2017-03-16T10:34:56.010Z,1024.73
2017-03-16T10:36:04.987Z,1024.75
2017-03-16T10:37:13.667Z,1024.71
2017-03-16T10:38:22.340Z,1024.75
2017-03-16T10:39:31.316Z,1024.73
2017-03-16T10:40:40.285Z,1024.69
2017-03-16T10:41:49.510Z,1024.66
2017-03-16T10:42:58.179Z,1024.69
2017-03-16T10:44:07.151Z,1024.64
2017-03-16T10:45:15.824Z,1024.51
2017-03-16T10:46:24.494Z,1024.2
2017-03-16T10:47:33.167Z,1024.23
2017-03-16T10:48:42.145Z,1024.41
2017-03-16T10:49:50.819Z,1024.31
2017-03-16T10:50:59.790Z,1024.22
2017-03-16T10:52:09.060Z,1024.22
2017-03-16T10:53:17.732Z,1024.02
2017-03-16T10:54:26.402Z,1023.88
2017-03-16T10:55:35.081Z,1023.8
2017-03-16T10:56:44.342Z,1023.61
2017-03-16T10:57:53.316Z,1023.44
2017-03-16T10:59:02.243Z,1023.38
2017-03-16T11:00:10.917Z,1023.35
2017-03-16T11:01:19.586Z,1023.31
2017-03-16T11:02:28.557Z,1023.33
2017-03-16T11:03:37.523Z,1023.28
2017-03-16T11:04:46.195Z,1023.23
2017-03-16T11:05:54.869Z,1023.19
2017-03-16T11:07:03.840Z,1023.13
2017-03-16T11:08:12.511Z,1023.19
2017-03-16T11:09:21.476Z,1023.16
2017-03-16T11:10:30.702Z,1023.12
2017-03-16T11:11:39.376Z,1023.13
2017-03-16T11:12:48.347Z,1023.1
2017-03-16T11:13:57.319Z,1023.08
2017-03-16T11:15:05.989Z,1023.08
2017-03-16T11:16:15.260Z,1023.05
2017-03-16T11:17:24.266Z,1023
2017-03-16T11:18:33.233Z,1023
2017-03-16T11:19:41.899Z,1022.94
2017-03-16T11:20:50.569Z,1022.94
2017-03-16T11:21:59.787Z,1022.92
2017-03-16T11:23:08.756Z,1022.9
2017-03-16T11:24:17.423Z,1022.85
2017-03-16T11:25:26.093Z,1022.87
2017-03-16T11:26:34.765Z,1022.82
2017-03-16T11:27:43.437Z,1022.84
2017-03-16T11:28:52.109Z,1022.82
2017-03-16T11:30:01.085Z,1022.8
2017-03-16T11:31:10.062Z,1022.77
2017-03-16T11:32:18.738Z,1022.75
2017-03-16T11:33:28.009Z,1022.74
2017-03-16T11:34:36.681Z,1022.69
2017-03-16T11:35:45.350Z,1022.7
2017-03-16T11:36:54.353Z,1022.69
2017-03-16T11:38:03.327Z,1022.67
2017-03-16T11:39:12.299Z,1022.68
2017-03-16T11:40:20.963Z,1022.6
2017-03-16T11:41:29.930Z,1022.59
2017-03-16T11:42:38.605Z,1022.52
2017-03-16T11:43:47.570Z,1022.48
2017-03-16T11:44:56.536Z,1022.41
2017-03-16T11:46:05.208Z,1022.41
2017-03-16T11:47:14.177Z,1022.32
2017-03-16T11:48:22.844Z,1022.33
2017-03-16T11:49:31.519Z,1022.33
2017-03-16T11:50:40.432Z,1022.29
2017-03-16T11:51:49.098Z,1022.22
2017-03-16T11:52:58.365Z,1022.24
2017-03-16T11:54:07.330Z,1022.19
2017-03-16T11:55:16.005Z,1022.17
2017-03-16T11:56:24.975Z,1022.15
2017-03-16T11:57:34.257Z,1022.14
2017-03-16T11:58:42.931Z,1022.1
2017-03-16T11:59:51.901Z,1022.08
2017-03-16T12:01:01.164Z,1022.07
2017-03-16T12:02:10.338Z,1022.03
2017-03-16T12:03:19.013Z,1022.03
2017-03-16T12:04:27.681Z,1022.03
2017-03-16T12:05:36.351Z,1022.02
2017-03-16T12:06:45.622Z,1021.97
2017-03-16T12:07:54.840Z,1021.96
2017-03-16T12:09:04.105Z,1021.95
2017-03-16T12:10:12.770Z,1021.83
2017-03-16T12:11:21.433Z,1021.87
2017-03-16T12:12:30.102Z,1021.87
2017-03-16T12:13:39.064Z,1021.82
2017-03-16T12:14:47.738Z,1021.76
2017-03-16T12:15:56.404Z,1021.72
2017-03-16T12:17:05.377Z,1021.63
2017-03-16T12:18:14.360Z,1021.58
2017-03-16T12:19:23.272Z,1021.6
2017-03-16T12:20:32.542Z,1021.62
2017-03-16T12:21:41.513Z,1021.58
2017-03-16T12:22:50.479Z,1021.58
2017-03-16T12:23:59.144Z,1021.59
2017-03-16T12:25:07.806Z,1021.57
2017-03-16T12:26:16.471Z,1021.56
2017-03-16T12:27:25.433Z,1021.57
2017-03-16T12:28:34.099Z,1021.51
2017-03-16T12:29:42.762Z,1021.51
2017-03-16T12:30:51.981Z,1021.52
2017-03-16T12:32:00.949Z,1021.55
2017-03-16T12:33:10.216Z,1021.5
2017-03-16T12:34:18.882Z,1021.46
2017-03-16T12:35:27.544Z,1021.42
2017-03-16T12:36:36.813Z,1021.39
2017-03-16T12:37:46.087Z,1021.31
2017-03-16T12:38:54.757Z,1021.3
2017-03-16T12:40:04.013Z,1021.32
2017-03-16T12:41:12.694Z,1021.27
2017-03-16T12:42:21.912Z,1021.24
2017-03-16T12:43:30.876Z,1021.21
2017-03-16T12:44:39.544Z,1021.2
2017-03-16T12:45:48.503Z,1021.18
2017-03-16T12:46:57.171Z,1021.21
2017-03-16T12:48:05.841Z,1021.15
2017-03-16T12:49:14.802Z,1021.19
2017-03-16T12:50:23.527Z,1021.17
2017-03-16T12:51:32.196Z,1021.14
2017-03-16T12:52:41.163Z,1021.09
2017-03-16T12:53:50.671Z,1021.06
2017-03-16T12:54:59.330Z,1021.01
2017-03-16T12:56:08.301Z,1021.03
2017-03-16T12:57:17.266Z,1020.99
2017-03-16T12:58:25.932Z,1020.99
2017-03-16T12:59:35.449Z,1020.93
2017-03-16T13:00:44.413Z,1020.9
2017-03-16T13:01:53.989Z,1020.86
2017-03-16T13:03:02.950Z,1020.78
2017-03-16T13:04:11.922Z,1020.83
2017-03-16T13:05:20.593Z,1020.76
2017-03-16T13:06:29.259Z,1020.74
2017-03-16T13:07:37.927Z,1020.73
2017-03-16T13:08:46.589Z,1020.73
2017-03-16T13:09:55.552Z,1020.71
2017-03-16T13:11:04.770Z,1020.66
2017-03-16T13:12:13.770Z,1020.65
2017-03-16T13:13:22.737Z,1020.67
2017-03-16T13:14:31.698Z,1020.63
2017-03-16T13:15:40.366Z,1020.63
2017-03-16T13:16:50.236Z,1020.56
2017-03-16T13:17:58.903Z,1020.56
2017-03-16T13:19:07.570Z,1020.54
2017-03-16T13:20:16.246Z,1020.49
2017-03-16T13:21:25.810Z,1020.46
2017-03-16T13:22:34.726Z,1020.44
2017-03-16T13:23:43.689Z,1020.45
2017-03-16T13:24:52.656Z,1020.45
2017-03-16T13:26:01.622Z,1020.45
2017-03-16T13:27:10.589Z,1020.39
2017-03-16T13:28:19.251Z,1020.43
2017-03-16T13:29:28.510Z,1020.37
2017-03-16T13:30:37.473Z,1020.38
2017-03-16T13:31:46.432Z,1020.37
2017-03-16T13:32:55.396Z,1020.35
2017-03-16T13:34:04.653Z,1020.36
2017-03-16T13:35:13.314Z,1020.4
2017-03-16T13:36:22.580Z,1020.35
2017-03-16T13:37:31.242Z,1020.36
2017-03-16T13:38:40.197Z,1020.3
2017-03-16T13:39:49.165Z,1020.3
2017-03-16T13:40:58.124Z,1020.28
2017-03-16T13:42:06.785Z,1020.23
2017-03-16T13:43:15.750Z,1020.2
2017-03-16T13:44:24.710Z,1020.17
2017-03-16T13:45:33.918Z,1020.12
2017-03-16T13:46:42.884Z,1020.09
2017-03-16T13:47:51.847Z,1020.06
2017-03-16T13:49:00.812Z,1020.02
2017-03-16T13:50:09.480Z,1019.99
2017-03-16T13:51:18.443Z,1019.96
2017-03-16T13:52:27.406Z,1019.94
2017-03-16T13:53:36.368Z,1019.94
2017-03-16T13:54:45.334Z,1019.94
2017-03-16T13:55:54.596Z,1019.87
2017-03-16T13:57:03.612Z,1019.83